createdAt,value
2023-04-01T00:00:17.836Z,988.12
2023-04-01T00:01:17.978Z,988.08
2023-04-01T00:02:17.900Z,988.07
2023-04-01T00:03:17.944Z,988.02
2023-04-01T00:04:17.842Z,988.03
2023-04-01T00:05:17.776Z,988.04
2023-04-01T00:06:17.763Z,988.00
2023-04-01T00:07:17.778Z,988.05
2023-04-01T00:08:17.748Z,988.03
2023-04-01T00:09:17.731Z,988.04
2023-04-01T00:10:17.724Z,988.01
2023-04-01T00:11:17.732Z,988.03
2023-04-01T00:12:17.717Z,987.99
2023-04-01T00:13:17.701Z,988.01
2023-04-01T00:14:17.691Z,987.98
2023-04-01T00:15:17.670Z,988.04
2023-04-01T00:16:22.172Z,988.03
2023-04-01T00:17:18.690Z,988.04
2023-04-01T00:18:17.637Z,987.99
2023-04-01T00:19:17.632Z,988.05
2023-04-01T00:20:17.616Z,988.06
2023-04-01T00:21:17.626Z,988.11
2023-04-01T00:22:17.582Z,988.19
2023-04-01T00:23:17.582Z,987.97
2023-04-01T00:24:17.571Z,987.99
2023-04-01T00:25:17.566Z,987.96
2023-04-01T00:26:17.539Z,988.00
2023-04-01T00:27:17.548Z,988.03
2023-04-01T00:28:17.537Z,988.00
2023-04-01T00:29:17.521Z,987.97
2023-04-01T00:30:17.503Z,988.01
2023-04-01T00:31:17.533Z,988.03
2023-04-01T00:32:17.475Z,988.01
2023-04-01T00:33:17.529Z,988.05
2023-04-01T00:34:17.472Z,987.98
2023-04-01T00:35:17.442Z,987.95
2023-04-01T00:36:17.460Z,988.01
2023-04-01T00:37:17.421Z,987.99
2023-04-01T00:38:17.424Z,987.93
2023-04-01T00:39:17.407Z,987.97
2023-04-01T00:40:17.385Z,987.97
2023-04-01T00:41:17.373Z,988.01
2023-04-01T00:42:17.378Z,987.91
2023-04-01T00:43:17.375Z,987.99
2023-04-01T00:44:17.343Z,988.05
2023-04-01T00:45:17.343Z,987.97
2023-04-01T00:46:17.357Z,988.00
2023-04-01T00:47:17.366Z,987.99
2023-04-01T00:48:17.319Z,987.99
2023-04-01T00:49:17.325Z,988.01
2023-04-01T00:50:17.300Z,987.99
2023-04-01T00:51:17.267Z,988.01
2023-04-01T00:52:17.251Z,987.98
2023-04-01T00:53:17.240Z,988.01
2023-04-01T00:54:17.245Z,987.93
2023-04-01T00:55:17.224Z,988.01
2023-04-01T00:56:17.226Z,987.97
2023-04-01T00:57:17.261Z,987.95
2023-04-01T00:58:17.206Z,987.92
2023-04-01T00:59:17.193Z,987.87
2023-04-01T01:00:17.202Z,987.98
2023-04-01T01:01:17.213Z,987.97
2023-04-01T01:02:17.172Z,987.93
2023-04-01T01:03:17.189Z,987.92
2023-04-01T01:04:17.119Z,987.95
2023-04-01T01:05:17.145Z,987.97
2023-04-01T01:06:17.100Z,987.92
2023-04-01T01:07:17.098Z,987.94
2023-04-01T01:08:17.103Z,987.92
2023-04-01T01:09:17.083Z,987.89
2023-04-01T01:10:17.073Z,987.80
2023-04-01T01:11:17.178Z,987.89
2023-04-01T01:12:17.047Z,987.93
2023-04-01T01:13:17.027Z,987.89
2023-04-01T01:14:17.009Z,987.85
2023-04-01T01:15:16.998Z,987.81
2023-04-01T01:16:17.055Z,987.77
2023-04-01T01:17:17.002Z,987.79
2023-04-01T01:18:16.962Z,987.81
2023-04-01T01:19:16.953Z,987.80
2023-04-01T01:20:25.980Z,987.78
2023-04-01T01:21:17.969Z,987.76
2023-04-01T01:22:16.944Z,987.76
2023-04-01T01:23:16.915Z,987.82
2023-04-01T01:24:16.909Z,987.84
2023-04-01T01:25:16.907Z,987.78
2023-04-01T01:26:16.890Z,987.75
2023-04-01T01:27:16.892Z,987.78
2023-04-01T01:28:16.884Z,987.82
2023-04-01T01:29:16.844Z,987.74
2023-04-01T01:30:16.843Z,987.82
2023-04-01T01:31:16.856Z,987.78
2023-04-01T01:32:16.824Z,987.83
2023-04-01T01:33:16.810Z,987.74
2023-04-01T01:34:16.803Z,987.80
2023-04-01T01:35:16.789Z,987.76
2023-04-01T01:36:16.820Z,987.87
2023-04-01T01:37:16.777Z,987.73
2023-04-01T01:38:16.755Z,987.75
2023-04-01T01:39:16.735Z,987.78
2023-04-01T01:40:16.728Z,987.72
2023-04-01T01:41:16.708Z,987.79
2023-04-01T01:42:16.701Z,987.78
2023-04-01T01:43:16.702Z,987.83
2023-04-01T01:44:16.690Z,987.77
2023-04-01T01:45:16.662Z,987.80
2023-04-01T01:46:16.712Z,987.79
2023-04-01T01:47:16.654Z,987.75
2023-04-01T01:48:16.704Z,987.77
2023-04-01T01:49:16.647Z,987.76
2023-04-01T01:50:16.624Z,987.75
2023-04-01T01:51:16.605Z,987.75
2023-04-01T01:52:16.599Z,987.83
2023-04-01T01:53:16.599Z,987.73
2023-04-01T01:54:16.574Z,987.79
2023-04-01T01:55:16.583Z,987.80
2023-04-01T01:56:16.564Z,987.81
2023-04-01T01:57:16.621Z,987.78
2023-04-01T01:58:16.516Z,987.75
2023-04-01T01:59:16.518Z,987.74
2023-04-01T02:00:16.531Z,987.71
2023-04-01T02:01:16.515Z,987.78
2023-04-01T02:02:16.474Z,987.80
2023-04-01T02:03:16.482Z,987.73
2023-04-01T02:04:16.632Z,987.78
2023-04-01T02:05:16.454Z,987.79
2023-04-01T02:06:16.428Z,987.75
2023-04-01T02:07:16.429Z,987.78
2023-04-01T02:08:16.420Z,987.77
2023-04-01T02:09:16.437Z,987.73
2023-04-01T02:10:16.378Z,987.73
2023-04-01T02:11:16.369Z,987.76
2023-04-01T02:12:16.367Z,987.71
2023-04-01T02:13:16.360Z,987.64
2023-04-01T02:14:16.332Z,987.70
2023-04-01T02:15:16.327Z,987.69
2023-04-01T02:16:16.391Z,987.71
2023-04-01T02:17:16.305Z,987.75
2023-04-01T02:18:16.291Z,987.73
2023-04-01T02:19:16.291Z,987.65
2023-04-01T02:20:16.267Z,987.69
2023-04-01T02:21:16.255Z,987.76
2023-04-01T02:22:16.256Z,987.75
2023-04-01T02:23:16.243Z,987.74
2023-04-01T02:24:16.262Z,987.70
2023-04-01T02:25:16.240Z,987.76
2023-04-01T02:26:16.197Z,987.72
2023-04-01T02:27:16.211Z,987.74
2023-04-01T02:28:16.193Z,987.68
2023-04-01T02:29:16.191Z,987.74
2023-04-01T02:30:16.174Z,987.72
2023-04-01T02:31:16.217Z,987.72
2023-04-01T02:32:16.143Z,987.75
2023-04-01T02:33:16.132Z,987.74
2023-04-01T02:34:16.144Z,987.73
2023-04-01T02:35:16.103Z,987.76
2023-04-01T02:36:16.118Z,987.75
2023-04-01T02:37:16.098Z,987.78
2023-04-01T02:38:16.079Z,987.74
2023-04-01T02:39:16.066Z,987.78
2023-04-01T02:40:16.186Z,987.79
2023-04-01T02:41:16.074Z,987.79
2023-04-01T02:42:16.039Z,987.81
2023-04-01T02:43:16.038Z,987.74
2023-04-01T02:44:16.037Z,987.76
2023-04-01T02:45:16.006Z,987.81
2023-04-01T02:46:16.045Z,987.76
2023-04-01T02:47:15.968Z,987.77
2023-04-01T02:48:15.966Z,987.80
2023-04-01T02:49:15.964Z,987.81
2023-04-01T02:50:15.950Z,987.72
2023-04-01T02:51:17.485Z,987.84
2023-04-01T02:52:15.922Z,987.74
2023-04-01T02:53:15.902Z,987.78
2023-04-01T02:54:15.909Z,987.80
2023-04-01T02:55:15.891Z,987.80
2023-04-01T02:56:15.882Z,987.84
2023-04-01T02:57:15.896Z,987.78
2023-04-01T02:58:15.888Z,987.74
2023-04-01T02:59:15.842Z,987.64
2023-04-01T03:00:15.846Z,987.74
2023-04-01T03:01:15.883Z,987.77
2023-04-01T03:02:15.932Z,987.72
2023-04-01T03:03:15.848Z,987.71
2023-04-01T03:04:15.808Z,987.70
2023-04-01T03:05:15.781Z,987.75
2023-04-01T03:06:15.776Z,987.78
2023-04-01T03:07:15.751Z,987.75
2023-04-01T03:08:15.736Z,987.78
2023-04-01T03:09:15.743Z,987.77
2023-04-01T03:10:15.729Z,987.82
2023-04-01T03:11:15.716Z,987.79
2023-04-01T03:12:15.694Z,987.76
2023-04-01T03:13:15.710Z,987.70
2023-04-01T03:14:15.704Z,987.76
2023-04-01T03:15:15.727Z,987.77
2023-04-01T03:16:15.670Z,987.73
2023-04-01T03:17:15.656Z,987.72
2023-04-01T03:18:15.641Z,987.72
2023-04-01T03:19:15.630Z,987.76
2023-04-01T03:20:15.639Z,987.75
2023-04-01T03:21:15.608Z,987.81
2023-04-01T03:22:15.622Z,987.79
2023-04-01T03:23:15.570Z,987.78
2023-04-01T03:24:15.625Z,987.76
2023-04-01T03:25:15.606Z,987.73
2023-04-01T03:26:15.683Z,987.77
2023-04-01T03:27:15.548Z,987.73
2023-04-01T03:28:15.570Z,987.75
2023-04-01T03:29:15.571Z,987.76
2023-04-01T03:30:15.648Z,987.72
2023-04-01T03:31:15.559Z,987.66
2023-04-01T03:32:15.500Z,987.70
2023-04-01T03:33:15.591Z,987.69
2023-04-01T03:34:15.585Z,987.71
2023-04-01T03:35:15.446Z,987.71
2023-04-01T03:36:15.442Z,987.67
2023-04-01T03:37:15.418Z,987.69
2023-04-01T03:38:15.420Z,987.69
2023-04-01T03:39:15.400Z,987.73
2023-04-01T03:40:15.401Z,987.73
2023-04-01T03:41:15.405Z,987.70
2023-04-01T03:42:15.372Z,987.69
2023-04-01T03:43:15.367Z,987.75
2023-04-01T03:44:15.344Z,987.71
2023-04-01T03:45:15.350Z,987.72
2023-04-01T03:46:15.353Z,987.71
2023-04-01T03:47:15.304Z,987.69
2023-04-01T03:48:15.298Z,987.68
2023-04-01T03:49:15.291Z,987.66
2023-04-01T03:50:15.268Z,987.64
2023-04-01T03:51:15.264Z,987.62
2023-04-01T03:52:15.260Z,987.63
2023-04-01T03:53:15.256Z,987.58
2023-04-01T03:54:15.228Z,987.68
2023-04-01T03:55:15.233Z,987.62
2023-04-01T03:56:15.217Z,987.58
2023-04-01T03:57:15.267Z,987.63
2023-04-01T03:58:15.241Z,987.63
2023-04-01T03:59:15.168Z,987.73
2023-04-01T04:00:15.179Z,987.66
2023-04-01T04:01:15.178Z,987.64
2023-04-01T04:02:15.159Z,987.67
2023-04-01T04:03:15.211Z,987.64
2023-04-01T04:04:15.172Z,987.68
2023-04-01T04:05:15.123Z,987.67
2023-04-01T04:06:15.121Z,987.65
2023-04-01T04:07:15.085Z,987.69
2023-04-01T04:08:15.074Z,987.69
2023-04-01T04:09:15.083Z,987.75
2023-04-01T04:10:15.075Z,987.70
2023-04-01T04:11:15.072Z,987.74
2023-04-01T04:12:15.053Z,987.70
2023-04-01T04:13:15.022Z,987.71
2023-04-01T04:14:15.011Z,987.68
2023-04-01T04:15:15.029Z,987.77
2023-04-01T04:16:15.018Z,987.76
2023-04-01T04:17:15.018Z,987.72
2023-04-01T04:18:14.975Z,987.71
2023-04-01T04:19:14.966Z,987.70
2023-04-01T04:20:14.942Z,987.78
2023-04-01T04:21:14.987Z,987.75
2023-04-01T04:22:14.936Z,987.77
2023-04-01T04:23:14.936Z,987.70
2023-04-01T04:24:14.900Z,987.75
2023-04-01T04:25:14.898Z,987.78
2023-04-01T04:26:14.890Z,987.76
2023-04-01T04:27:14.888Z,987.82
2023-04-01T04:28:14.856Z,987.72
2023-04-01T04:29:14.867Z,987.76
2023-04-01T04:30:14.838Z,987.80
2023-04-01T04:31:14.839Z,987.78
2023-04-01T04:32:14.816Z,987.75
2023-04-01T04:33:14.843Z,987.78
2023-04-01T04:34:14.806Z,987.83
2023-04-01T04:35:14.813Z,987.84
2023-04-01T04:36:14.826Z,987.74
2023-04-01T04:37:14.768Z,987.69
2023-04-01T04:38:14.749Z,987.61
2023-04-01T04:39:14.757Z,987.80
2023-04-01T04:40:14.721Z,987.80
2023-04-01T04:41:14.728Z,987.81
2023-04-01T04:42:14.710Z,987.80
2023-04-01T04:43:14.698Z,987.79
2023-04-01T04:44:14.692Z,987.82
2023-04-01T04:45:14.673Z,987.81
2023-04-01T04:46:14.713Z,987.83
2023-04-01T04:47:14.678Z,987.82
2023-04-01T04:48:14.639Z,987.81
2023-04-01T04:49:14.666Z,987.79
2023-04-01T04:50:14.642Z,987.79
2023-04-01T04:51:14.596Z,987.78
2023-04-01T04:52:14.629Z,987.82
2023-04-01T04:53:14.585Z,987.79
2023-04-01T04:54:14.584Z,987.81
2023-04-01T04:55:14.582Z,987.82
2023-04-01T04:56:14.540Z,987.91
2023-04-01T04:57:14.573Z,987.89
2023-04-01T04:58:14.523Z,987.91
2023-04-01T04:59:14.505Z,987.86
2023-04-01T05:00:14.501Z,987.89
2023-04-01T05:01:14.553Z,987.87
2023-04-01T05:02:14.539Z,987.90
2023-04-01T05:03:14.615Z,987.96
2023-04-01T05:04:14.472Z,987.91
2023-04-01T05:05:14.498Z,987.91
2023-04-01T05:06:14.455Z,987.90
2023-04-01T05:07:14.444Z,987.90
2023-04-01T05:08:14.435Z,987.93
2023-04-01T05:09:14.415Z,987.93
2023-04-01T05:10:14.387Z,987.91
2023-04-01T05:11:14.407Z,987.98
2023-04-01T05:12:14.381Z,987.91
2023-04-01T05:13:14.386Z,987.93
2023-04-01T05:14:14.359Z,987.94
2023-04-01T05:15:14.348Z,987.91
2023-04-01T05:16:14.368Z,987.95
2023-04-01T05:17:14.361Z,987.94
2023-04-01T05:18:14.327Z,987.98
2023-04-01T05:19:14.298Z,987.96
2023-04-01T05:20:14.323Z,987.96
2023-04-01T05:21:14.323Z,987.93
2023-04-01T05:22:14.304Z,987.93
2023-04-01T05:23:14.248Z,987.91
2023-04-01T05:24:22.018Z,987.90
2023-04-01T05:25:14.276Z,987.88
2023-04-01T05:26:14.248Z,987.93
2023-04-01T05:27:14.217Z,987.95
2023-04-01T05:28:14.185Z,987.99
2023-04-01T05:29:14.191Z,987.95
2023-04-01T05:30:14.212Z,987.92
2023-04-01T05:31:14.271Z,988.04
2023-04-01T05:32:14.165Z,988.04
2023-04-01T05:33:14.154Z,988.02
2023-04-01T05:34:14.150Z,988.03
2023-04-01T05:35:14.113Z,988.03
2023-04-01T05:36:14.194Z,988.03
2023-04-01T05:37:14.163Z,988.05
2023-04-01T05:38:14.102Z,988.01
2023-04-01T05:39:14.118Z,988.07
2023-04-01T05:40:14.118Z,988.05
2023-04-01T05:41:14.064Z,987.98
2023-04-01T05:42:14.066Z,987.99
2023-04-01T05:43:14.054Z,988.07
2023-04-01T05:44:14.056Z,988.08
2023-04-01T05:45:14.031Z,988.05
2023-04-01T05:46:14.058Z,988.10
2023-04-01T05:47:13.985Z,988.08
2023-04-01T05:48:14.001Z,988.06
2023-04-01T05:49:13.960Z,988.12
2023-04-01T05:50:13.985Z,988.04
2023-04-01T05:51:13.944Z,988.04
2023-04-01T05:52:13.940Z,988.05
2023-04-01T05:53:13.944Z,988.08
2023-04-01T05:54:13.909Z,988.07
2023-04-01T05:55:13.919Z,988.08
2023-04-01T05:56:13.943Z,988.07
2023-04-01T05:57:13.927Z,988.10
2023-04-01T05:58:13.898Z,988.11
2023-04-01T05:59:13.891Z,988.12
2023-04-01T06:00:13.854Z,988.11
2023-04-01T06:01:16.160Z,988.13
2023-04-01T06:02:13.875Z,988.12
2023-04-01T06:03:13.935Z,988.15
2023-04-01T06:04:13.855Z,988.15
2023-04-01T06:05:13.804Z,988.14
2023-04-01T06:06:13.806Z,988.14
2023-04-01T06:07:13.775Z,988.14
2023-04-01T06:08:13.917Z,988.14
2023-04-01T06:09:13.815Z,988.16
2023-04-01T06:10:13.783Z,988.17
2023-04-01T06:11:13.744Z,988.14
2023-04-01T06:12:13.712Z,988.17
2023-04-01T06:13:13.700Z,988.16
2023-04-01T06:14:13.713Z,988.24
2023-04-01T06:15:13.695Z,988.23
2023-04-01T06:16:13.703Z,988.24
2023-04-01T06:17:13.711Z,988.26
2023-04-01T06:18:13.749Z,988.25
2023-04-01T06:19:13.647Z,988.29
2023-04-01T06:20:13.621Z,988.24
2023-04-01T06:21:13.628Z,988.27
2023-04-01T06:22:13.636Z,988.31
2023-04-01T06:23:13.612Z,988.36
2023-04-01T06:24:13.601Z,988.32
2023-04-01T06:25:13.624Z,988.34
2023-04-01T06:26:13.557Z,988.33
2023-04-01T06:27:13.590Z,988.30
2023-04-01T06:28:13.550Z,988.33
2023-04-01T06:29:13.518Z,988.32
2023-04-01T06:30:13.583Z,988.35
2023-04-01T06:31:13.560Z,988.38
2023-04-01T06:32:13.574Z,988.39
2023-04-01T06:33:13.537Z,988.42
2023-04-01T06:34:13.471Z,988.40
2023-04-01T06:35:13.480Z,988.42
2023-04-01T06:36:13.514Z,988.42
2023-04-01T06:37:13.460Z,988.39
2023-04-01T06:38:13.429Z,988.39
2023-04-01T06:39:13.407Z,988.39
2023-04-01T06:40:13.431Z,988.39
2023-04-01T06:41:13.432Z,988.38
2023-04-01T06:42:13.400Z,988.41
2023-04-01T06:43:13.393Z,988.38
2023-04-01T06:44:13.399Z,988.39
2023-04-01T06:45:13.365Z,988.38
2023-04-01T06:46:13.386Z,988.44
2023-04-01T06:47:13.359Z,988.45
2023-04-01T06:48:13.387Z,988.42
2023-04-01T06:49:13.347Z,988.48
2023-04-01T06:50:13.299Z,988.50
2023-04-01T06:51:13.326Z,988.49
2023-04-01T06:52:13.288Z,988.48
2023-04-01T06:53:13.262Z,988.46
2023-04-01T06:54:13.267Z,988.45
2023-04-01T06:55:13.266Z,988.49
2023-04-01T06:56:13.257Z,988.50
2023-04-01T06:57:13.254Z,988.48
2023-04-01T06:58:13.217Z,988.51
2023-04-01T06:59:13.197Z,988.51
2023-04-01T07:00:13.193Z,988.52
2023-04-01T07:01:13.194Z,988.51
2023-04-01T07:02:13.184Z,988.47
2023-04-01T07:03:13.259Z,988.51
2023-04-01T07:04:13.177Z,988.53
2023-04-01T07:05:13.163Z,988.53
2023-04-01T07:06:13.168Z,988.57
2023-04-01T07:07:13.128Z,988.53
2023-04-01T07:08:13.160Z,988.57
2023-04-01T07:09:13.096Z,988.54
2023-04-01T07:10:13.088Z,988.60
2023-04-01T07:11:13.077Z,988.58
2023-04-01T07:12:13.050Z,988.56
2023-04-01T07:13:13.056Z,988.57
2023-04-01T07:14:13.422Z,988.57
2023-04-01T07:15:13.012Z,988.57
2023-04-01T07:16:13.010Z,988.59
2023-04-01T07:17:13.039Z,988.60
2023-04-01T07:18:12.983Z,988.59
2023-04-01T07:19:12.962Z,988.62
2023-04-01T07:20:12.985Z,988.66
2023-04-01T07:21:12.950Z,988.68
2023-04-01T07:22:12.956Z,988.72
2023-04-01T07:23:12.910Z,988.66
2023-04-01T07:24:12.933Z,988.66
2023-04-01T07:25:12.893Z,988.73
2023-04-01T07:26:12.881Z,988.68
2023-04-01T07:27:12.947Z,988.69
2023-04-01T07:28:12.868Z,988.71
2023-04-01T07:29:12.887Z,988.71
2023-04-01T07:30:12.858Z,988.68
2023-04-01T07:31:12.861Z,988.73
2023-04-01T07:32:12.813Z,988.73
2023-04-01T07:33:12.832Z,988.73
2023-04-01T07:34:12.896Z,988.76
2023-04-01T07:35:12.799Z,988.74
2023-04-01T07:36:12.803Z,988.71
2023-04-01T07:37:12.767Z,988.71
2023-04-01T07:38:12.810Z,988.70
2023-04-01T07:39:12.724Z,988.78
2023-04-01T07:40:12.779Z,988.76
2023-04-01T07:41:12.708Z,988.78
2023-04-01T07:42:12.698Z,988.81
2023-04-01T07:43:12.690Z,988.85
2023-04-01T07:44:12.722Z,988.79
2023-04-01T07:45:12.712Z,988.78
2023-04-01T07:46:12.717Z,988.85
2023-04-01T07:47:12.661Z,988.85
2023-04-01T07:48:12.745Z,988.80
2023-04-01T07:49:12.657Z,988.83
2023-04-01T07:50:12.644Z,988.85
2023-04-01T07:51:12.624Z,988.83
2023-04-01T07:52:12.606Z,988.87
2023-04-01T07:53:12.613Z,988.97
2023-04-01T07:54:12.614Z,988.93
2023-04-01T07:55:12.562Z,988.88
2023-04-01T07:56:12.935Z,988.95
2023-04-01T07:57:12.578Z,988.93
2023-04-01T07:58:12.562Z,988.96
2023-04-01T07:59:12.612Z,988.93
2023-04-01T08:00:12.551Z,988.90
2023-04-01T08:01:12.547Z,988.99
2023-04-01T08:02:12.531Z,988.96
2023-04-01T08:03:12.571Z,988.92
2023-04-01T08:04:12.693Z,988.96
2023-04-01T08:05:12.463Z,988.99
2023-04-01T08:06:12.427Z,988.98
2023-04-01T08:07:12.473Z,988.96
2023-04-01T08:08:12.436Z,989.01
2023-04-01T08:09:12.407Z,988.98
2023-04-01T08:10:12.396Z,989.05
2023-04-01T08:11:12.374Z,989.03
2023-04-01T08:12:12.385Z,989.05
2023-04-01T08:13:12.385Z,989.03
2023-04-01T08:14:12.439Z,989.07
2023-04-01T08:15:12.318Z,989.13
2023-04-01T08:16:12.327Z,989.02
2023-04-01T08:17:12.359Z,989.10
2023-04-01T08:18:12.326Z,989.06
2023-04-01T08:19:12.290Z,989.25
2023-04-01T08:20:12.294Z,989.14
2023-04-01T08:21:12.281Z,989.13
2023-04-01T08:22:12.265Z,989.08
2023-04-01T08:23:12.244Z,989.08
2023-04-01T08:24:12.282Z,989.16
2023-04-01T08:25:12.208Z,989.17
2023-04-01T08:26:12.204Z,989.13
2023-04-01T08:27:12.208Z,989.28
2023-04-01T08:28:12.204Z,989.21
2023-04-01T08:29:12.171Z,989.28
2023-04-01T08:30:12.181Z,989.22
2023-04-01T08:31:12.147Z,989.20
2023-04-01T08:32:12.234Z,989.26
2023-04-01T08:33:12.229Z,989.30
2023-04-01T08:34:12.116Z,989.21
2023-04-01T08:35:12.155Z,989.27
2023-04-01T08:36:12.185Z,989.28
2023-04-01T08:37:12.094Z,989.23
2023-04-01T08:38:12.082Z,989.28
2023-04-01T08:39:12.072Z,989.32
2023-04-01T08:40:12.067Z,989.28
2023-04-01T08:41:12.068Z,989.32
2023-04-01T08:42:12.061Z,989.33
2023-04-01T08:43:12.052Z,989.22
2023-04-01T08:44:12.001Z,989.29
2023-04-01T08:45:14.288Z,989.36
2023-04-01T08:46:12.122Z,989.40
2023-04-01T08:47:11.993Z,989.34
2023-04-01T08:48:12.008Z,989.64
2023-04-01T08:49:11.973Z,989.31
2023-04-01T08:50:11.985Z,989.37
2023-04-01T08:51:11.957Z,989.34
2023-04-01T08:52:11.933Z,989.34
2023-04-01T08:53:11.893Z,989.42
2023-04-01T08:54:11.911Z,989.34
2023-04-01T08:55:11.878Z,989.40
2023-04-01T08:56:11.893Z,989.41
2023-04-01T08:57:11.895Z,989.35
2023-04-01T08:58:11.842Z,989.49
2023-04-01T08:59:11.858Z,989.46
2023-04-01T09:00:11.856Z,989.57
2023-04-01T09:01:11.818Z,989.46
2023-04-01T09:02:11.837Z,989.51
2023-04-01T09:03:11.899Z,989.51
2023-04-01T09:04:11.852Z,989.60
2023-04-01T09:05:11.805Z,989.57
2023-04-01T09:06:11.786Z,989.56
2023-04-01T09:07:12.885Z,989.62
2023-04-01T09:08:11.727Z,989.72
2023-04-01T09:09:11.741Z,989.61
2023-04-01T09:10:11.736Z,989.69
2023-04-01T09:11:11.730Z,989.77
2023-04-01T09:12:11.728Z,989.74
2023-04-01T09:13:11.663Z,989.57
2023-04-01T09:14:11.673Z,989.67
2023-04-01T09:15:11.677Z,989.67
2023-04-01T09:16:11.695Z,989.62
2023-04-01T09:17:11.664Z,989.75
2023-04-01T09:18:11.633Z,989.81
2023-04-01T09:19:11.626Z,989.67
2023-04-01T09:20:11.639Z,989.68
2023-04-01T09:21:11.637Z,989.64
2023-04-01T09:22:11.579Z,989.67
2023-04-01T09:23:11.577Z,989.68
2023-04-01T09:24:11.568Z,989.75
2023-04-01T09:25:11.570Z,989.68
2023-04-01T09:26:11.538Z,989.73
2023-04-01T09:27:11.563Z,989.75
2023-04-01T09:28:11.527Z,989.83
2023-04-01T09:29:11.548Z,989.76
2023-04-01T09:30:11.518Z,989.82
2023-04-01T09:31:11.555Z,989.84
2023-04-01T09:32:11.503Z,989.86
2023-04-01T09:33:11.477Z,989.86
2023-04-01T09:34:11.497Z,989.88
2023-04-01T09:35:11.466Z,989.84
2023-04-01T09:36:11.468Z,989.92
2023-04-01T09:37:11.427Z,989.90
2023-04-01T09:38:11.399Z,989.99
2023-04-01T09:39:11.415Z,990.00
2023-04-01T09:40:11.390Z,989.97
2023-04-01T09:41:11.363Z,989.99
2023-04-01T09:42:11.343Z,989.96
2023-04-01T09:43:11.356Z,989.96
2023-04-01T09:44:11.357Z,989.95
2023-04-01T09:45:11.438Z,989.96
2023-04-01T09:46:11.368Z,989.99
2023-04-01T09:47:11.302Z,989.95
2023-04-01T09:48:11.350Z,990.03
2023-04-01T09:49:11.290Z,990.09
2023-04-01T09:50:11.274Z,990.10
2023-04-01T09:51:11.281Z,990.00
2023-04-01T09:52:11.253Z,990.06
2023-04-01T09:53:11.268Z,990.08
2023-04-01T09:54:11.251Z,990.07
2023-04-01T09:55:11.225Z,990.06
2023-04-01T09:56:11.214Z,990.11
2023-04-01T09:57:11.200Z,990.07
2023-04-01T09:58:11.207Z,990.04
2023-04-01T09:59:11.198Z,990.06
2023-04-01T10:00:11.150Z,990.07
2023-04-01T10:01:11.137Z,990.18
2023-04-01T10:02:11.165Z,990.26
2023-04-01T10:03:11.198Z,990.20
2023-04-01T10:04:11.127Z,990.25
2023-04-01T10:05:11.457Z,990.16
2023-04-01T10:06:11.107Z,990.18
2023-04-01T10:07:11.098Z,990.31
2023-04-01T10:08:11.090Z,990.24
2023-04-01T10:09:11.088Z,990.23
2023-04-01T10:10:11.052Z,990.30
2023-04-01T10:11:11.038Z,990.35
2023-04-01T10:12:11.069Z,990.50
2023-04-01T10:13:11.028Z,990.30
2023-04-01T10:14:11.013Z,990.33
2023-04-01T10:15:11.001Z,990.31
2023-04-01T10:16:11.002Z,990.38
2023-04-01T10:17:10.984Z,990.33
2023-04-01T10:18:10.969Z,990.30
2023-04-01T10:19:10.933Z,990.33
2023-04-01T10:20:10.978Z,990.38
2023-04-01T10:21:10.925Z,990.40
2023-04-01T10:22:10.951Z,990.42
2023-04-01T10:23:10.932Z,990.46
2023-04-01T10:24:11.887Z,990.43
2023-04-01T10:25:10.914Z,990.43
2023-04-01T10:26:10.913Z,990.55
2023-04-01T10:27:10.864Z,990.47
2023-04-01T10:28:10.906Z,990.52
2023-04-01T10:29:10.828Z,990.53
2023-04-01T10:30:10.819Z,990.49
2023-04-01T10:31:10.808Z,990.45
2023-04-01T10:32:10.870Z,990.55
2023-04-01T10:33:10.811Z,990.54
2023-04-01T10:34:10.858Z,990.59
2023-04-01T10:35:10.810Z,990.68
2023-04-01T10:36:10.833Z,990.66
2023-04-01T10:37:10.740Z,990.47
2023-04-01T10:38:10.749Z,990.50
2023-04-01T10:39:10.711Z,990.43
2023-04-01T10:40:10.702Z,990.47
2023-04-01T10:41:10.692Z,990.48
2023-04-01T10:42:10.726Z,990.52
2023-04-01T10:43:10.747Z,990.43
2023-04-01T10:44:10.674Z,990.39
2023-04-01T10:45:10.681Z,990.53
2023-04-01T10:46:10.701Z,990.48
2023-04-01T10:47:10.628Z,990.50
2023-04-01T10:48:10.920Z,990.43
2023-04-01T10:49:10.640Z,990.44
2023-04-01T10:50:10.600Z,990.50
2023-04-01T10:51:10.577Z,990.52
2023-04-01T10:52:10.561Z,990.41
2023-04-01T10:53:10.556Z,990.53
2023-04-01T10:54:10.562Z,990.53
2023-04-01T10:55:10.568Z,990.47
2023-04-01T10:56:10.526Z,990.51
2023-04-01T10:57:10.608Z,990.54
2023-04-01T10:58:10.524Z,990.44
2023-04-01T10:59:10.588Z,990.49
2023-04-01T11:00:10.491Z,990.47
2023-04-01T11:01:10.515Z,990.50
2023-04-01T11:02:12.244Z,990.46
2023-04-01T11:03:10.545Z,990.52
2023-04-01T11:04:10.439Z,990.47
2023-04-01T11:05:10.442Z,990.64
2023-04-01T11:06:10.432Z,990.58
2023-04-01T11:07:10.406Z,990.51
2023-04-01T11:08:10.402Z,990.56
2023-04-01T11:09:10.361Z,990.58
2023-04-01T11:10:10.379Z,990.55
2023-04-01T11:11:10.381Z,990.66
2023-04-01T11:12:10.356Z,990.63
2023-04-01T11:13:10.367Z,990.65
2023-04-01T11:14:10.320Z,990.66
2023-04-01T11:15:10.367Z,990.63
2023-04-01T11:16:10.370Z,990.61
2023-04-01T11:17:10.289Z,990.63
2023-04-01T11:18:10.377Z,990.64
2023-04-01T11:19:10.283Z,990.63
2023-04-01T11:20:10.263Z,990.69
2023-04-01T11:21:10.254Z,990.68
2023-04-01T11:22:10.235Z,990.72
2023-04-01T11:23:10.222Z,990.68
2023-04-01T11:24:10.229Z,990.73
2023-04-01T11:25:10.194Z,990.71
2023-04-01T11:26:10.208Z,990.69
2023-04-01T11:27:10.218Z,990.65
2023-04-01T11:28:10.171Z,990.86
2023-04-01T11:29:10.190Z,990.78
2023-04-01T11:30:10.155Z,990.84
2023-04-01T11:31:10.419Z,990.71
2023-04-01T11:32:10.130Z,990.77
2023-04-01T11:33:10.208Z,990.82
2023-04-01T11:34:10.118Z,990.84
2023-04-01T11:35:10.085Z,990.83
2023-04-01T11:36:10.089Z,990.93
2023-04-01T11:37:10.088Z,990.90
2023-04-01T11:38:10.058Z,990.94
2023-04-01T11:39:10.049Z,990.79
2023-04-01T11:40:10.049Z,990.94
2023-04-01T11:41:10.032Z,990.97
2023-04-01T11:42:09.995Z,990.89
2023-04-01T11:43:11.660Z,990.87
2023-04-01T11:44:10.979Z,990.85
2023-04-01T11:45:10.030Z,990.95
2023-04-01T11:46:10.050Z,990.93
2023-04-01T11:47:10.006Z,991.06
2023-04-01T11:48:10.004Z,990.99
2023-04-01T11:49:09.970Z,991.09
2023-04-01T11:50:10.410Z,990.96
2023-04-01T11:51:09.903Z,990.99
2023-04-01T11:52:09.898Z,991.03
2023-04-01T11:53:09.905Z,991.00
2023-04-01T11:54:09.867Z,990.97
2023-04-01T11:55:09.853Z,990.99
2023-04-01T11:56:09.869Z,991.06
2023-04-01T11:57:09.863Z,991.03
2023-04-01T11:58:09.838Z,990.98
2023-04-01T11:59:09.814Z,991.02
2023-04-01T12:00:09.815Z,991.10
2023-04-01T12:01:09.805Z,991.10
2023-04-01T12:02:09.868Z,991.03
2023-04-01T12:03:09.933Z,991.04
2023-04-01T12:04:09.972Z,991.08
2023-04-01T12:05:09.749Z,991.16
2023-04-01T12:06:09.730Z,991.08
2023-04-01T12:07:09.754Z,991.15
2023-04-01T12:08:09.717Z,991.11
2023-04-01T12:09:09.702Z,991.08
2023-04-01T12:10:09.737Z,991.10
2023-04-01T12:11:09.694Z,991.13
2023-04-01T12:12:09.681Z,991.10
2023-04-01T12:13:09.686Z,991.12
2023-04-01T12:14:09.629Z,991.12
2023-04-01T12:15:09.649Z,991.29
2023-04-01T12:16:09.683Z,991.12
2023-04-01T12:17:09.657Z,991.22
2023-04-01T12:18:09.682Z,991.30
2023-04-01T12:19:09.588Z,991.26
2023-04-01T12:20:09.607Z,991.34
2023-04-01T12:21:09.609Z,991.25
2023-04-01T12:22:09.572Z,991.35
2023-04-01T12:23:09.543Z,991.28
2023-04-01T12:24:09.539Z,991.41
2023-04-01T12:25:09.515Z,991.61
2023-04-01T12:26:09.537Z,991.32
2023-04-01T12:27:09.500Z,991.29
2023-04-01T12:28:09.481Z,991.37